Time;durP1;ratioP1;P1;durP2;ratioP2;P2;SDS_P1;SDS_P2;PMS_P1;PMS_P2;Temp;Humidity;BMP_temperature;BMP_pressure;BME280_temperature;BME280_humidity;BME280_pressure;Samples;Min_cycle;Max_cycle;Signal;HPM_P1;HPM_P2
2023/07/07 00:02:06;;;;;;;7.22;3.28;;;;;;;;;;4994914;28;20099;-77
2023/07/07 00:04:32;;;;;;;6.00;3.10;;;;;;;;;;4994756;28;20026;-78
2023/07/07 00:06:58;;;;;;;8.45;3.50;;;;;;;;;;4994505;28;20027;-76
2023/07/07 00:09:25;;;;;;;8.05;3.75;;;;;;;;;;4977155;28;20022;-78
2023/07/07 00:11:51;;;;;;;4.85;3.35;;;;;;;;;;4977193;28;20041;-77
2023/07/07 00:14:17;;;;;;;5.60;3.15;;;;;;;;;;4994581;28;20034;-78
2023/07/07 00:16:43;;;;;;;3.53;2.80;;;;;;;;;;4994520;28;20022;-78
2023/07/07 00:19:09;;;;;;;4.32;2.90;;;;;;;;;;4994922;28;20031;-76
2023/07/07 00:21:36;;;;;;;7.70;3.38;;;;;;;;;;4995472;28;20027;-79
2023/07/07 00:24:02;;;;;;;3.85;2.83;;;;;;;;;;4995026;28;20053;-79
2023/07/07 00:26:28;;;;;;;4.70;3.58;;;;;;;;;;4994823;28;20066;-79
2023/07/07 00:28:54;;;;;;;4.50;2.92;;;;;;;;;;4994125;28;20117;-79
2023/07/07 00:31:20;;;;;;;5.80;3.22;;;;;;;;;;4996578;28;20030;-79
2023/07/07 00:33:47;;;;;;;5.13;3.30;;;;;;;;;;4996304;28;20058;-79
2023/07/07 00:36:13;;;;;;;5.47;3.33;;;;;;;;;;4993537;28;20473;-79
2023/07/07 00:38:39;;;;;;;5.30;3.50;;;;;;;;;;4993792;28;20019;-79
2023/07/07 00:41:06;;;;;;;5.75;3.53;;;;;;;;;;4994397;28;20050;-80
2023/07/07 00:43:32;;;;;;;5.63;3.22;;;;;;;;;;4976831;28;20054;-79
2023/07/07 00:45:58;;;;;;;4.38;3.35;;;;;;;;;;4994111;28;20023;-79
2023/07/07 00:48:44;;;;;;;3.88;3.05;;;;;;;;;;4976010;28;20022;-79
2023/07/07 00:51:13;;;;;;;6.65;3.50;;;;;;;;;;4994017;28;20030;-77
2023/07/07 00:53:40;;;;;;;3.85;3.03;;;;;;;;;;4993973;28;20026;-78
2023/07/07 00:56:10;;;;;;;7.55;3.45;;;;;;;;;;4976124;28;20077;-78
2023/07/07 00:58:37;;;;;;;7.05;3.28;;;;;;;;;;4992959;28;20026;-77
2023/07/07 01:01:05;;;;;;;6.70;3.20;;;;;;;;;;4993542;28;20106;-78
2023/07/07 01:03:37;;;;;;;5.43;3.70;;;;;;;;;;4993938;28;20377;-78
2023/07/07 01:06:06;;;;;;;6.78;3.03;;;;;;;;;;4993597;28;20019;-78
2023/07/07 01:08:32;;;;;;;3.97;3.22;;;;;;;;;;4992924;28;20080;-77
2023/07/07 01:10:58;;;;;;;5.22;3.25;;;;;;;;;;4993203;28;20481;-78
2023/07/07 01:13:24;;;;;;;5.93;3.47;;;;;;;;;;4993528;28;20038;-78
2023/07/07 01:16:17;;;;;;;5.05;3.30;;;;;;;;;;4975850;28;20022;-77
2023/07/07 01:18:52;;;;;;;5.00;2.90;;;;;;;;;;4989221;28;20089;-78
2023/07/07 01:21:29;;;;;;;6.13;3.80;;;;;;;;;;4975949;28;20025;-78
2023/07/07 01:24:02;;;;;;;5.78;3.70;;;;;;;;;;4993464;28;20362;-78
2023/07/07 01:26:55;;;;;;;6.97;3.97;;;;;;;;;;4992890;28;20037;-78
2023/07/07 01:29:40;;;;;;;5.30;3.38;;;;;;;;;;4992288;28;20102;-77
2023/07/07 01:32:06;;;;;;;5.22;3.28;;;;;;;;;;4992937;28;20065;-77
2023/07/07 01:34:32;;;;;;;3.55;3.17;;;;;;;;;;4975472;28;20029;-78
2023/07/07 01:36:58;;;;;;;6.65;3.17;;;;;;;;;;4992521;28;20105;-75
2023/07/07 01:39:25;;;;;;;7.22;3.28;;;;;;;;;;4992528;28;20455;-77
2023/07/07 01:42:20;;;;;;;4.40;3.20;;;;;;;;;;4993109;28;20109;-78
2023/07/07 01:44:53;;;;;;;4.70;3.60;;;;;;;;;;4959062;28;20034;-78
2023/07/07 01:47:39;;;;;;;4.32;3.33;;;;;;;;;;4974467;28;20101;-79
2023/07/07 01:50:09;;;;;;;7.35;3.53;;;;;;;;;;4992468;28;20125;-77
2023/07/07 01:52:37;;;;;;;5.30;3.65;;;;;;;;;;4992754;28;20089;-77
2023/07/07 01:55:07;;;;;;;4.93;3.67;;;;;;;;;;4975074;28;20073;-77
2023/07/07 01:57:35;;;;;;;5.18;3.58;;;;;;;;;;4991928;28;20027;-77
2023/07/07 02:00:01;;;;;;;6.38;3.55;;;;;;;;;;4975052;28;20029;-77
2023/07/07 02:02:27;;;;;;;5.70;3.45;;;;;;;;;;4974999;28;20029;-77
2023/07/07 02:04:53;;;;;;;6.03;3.47;;;;;;;;;;4974907;28;20062;-78
2023/07/07 02:07:19;;;;;;;4.32;3.80;;;;;;;;;;4991851;28;20037;-77
2023/07/07 02:09:45;;;;;;;4.65;3.30;;;;;;;;;;4992611;28;20527;-77
2023/07/07 02:12:11;;;;;;;4.40;3.40;;;;;;;;;;4992378;28;20022;-78
2023/07/07 02:14:37;;;;;;;7.53;3.80;;;;;;;;;;4992399;28;20512;-76
2023/07/07 02:17:03;;;;;;;6.65;3.50;;;;;;;;;;4991981;28;20030;-78
2023/07/07 02:19:29;;;;;;;5.82;3.45;;;;;;;;;;4992259;28;20019;-78
2023/07/07 02:21:55;;;;;;;6.28;3.20;;;;;;;;;;4992172;28;20118;-77
2023/07/07 02:24:21;;;;;;;4.07;3.50;;;;;;;;;;4992704;28;20023;-77
2023/07/07 02:26:49;;;;;;;5.78;3.67;;;;;;;;;;5013108;23;20124;-73
2023/07/07 02:29:15;;;;;;;6.50;3.50;;;;;;;;;;4991295;28;20432;-72
2023/07/07 02:31:41;;;;;;;3.13;2.83;;;;;;;;;;4991946;28;20034;-72
2023/07/07 02:34:07;;;;;;;6.70;3.42;;;;;;;;;;4992431;28;20119;-72
2023/07/07 02:36:36;;;;;;;4.97;3.00;;;;;;;;;;4991588;28;20038;-73
2023/07/07 02:39:02;;;;;;;3.85;3.17;;;;;;;;;;4973904;28;20110;-72
2023/07/07 02:41:28;;;;;;;4.32;3.35;;;;;;;;;;4992027;28;20026;-73
2023/07/07 02:43:54;;;;;;;6.25;3.67;;;;;;;;;;4991971;28;20034;-72
2023/07/07 02:46:20;;;;;;;3.92;3.25;;;;;;;;;;4991777;28;20026;-73
2023/07/07 02:48:46;;;;;;;6.53;3.40;;;;;;;;;;4991252;28;20030;-73
2023/07/07 02:51:12;;;;;;;4.97;3.75;;;;;;;;;;4991674;28;20030;-73
2023/07/07 02:53:38;;;;;;;5.55;3.70;;;;;;;;;;4992057;28;20029;-72
2023/07/07 02:56:05;;;;;;;9.15;4.32;;;;;;;;;;4991570;28;20448;-72
2023/07/07 02:58:31;;;;;;;5.28;3.55;;;;;;;;;;4991177;28;20026;-72
2023/07/07 03:01:11;;;;;;;7.32;3.67;;;;;;;;;;4991131;28;20030;-72
2023/07/07 03:03:43;;;;;;;5.72;3.30;;;;;;;;;;4991853;28;20027;-72
2023/07/07 03:06:11;;;;;;;5.93;3.65;;;;;;;;;;4991921;28;20065;-73
2023/07/07 03:08:37;;;;;;;6.65;3.35;;;;;;;;;;4991074;28;20080;-73
2023/07/07 03:11:04;;;;;;;39.53;31.60;;;;;;;;;;4991691;28;20027;-72
2023/07/07 03:13:30;;;;;;;16.42;12.63;;;;;;;;;;4991584;28;20424;-73
2023/07/07 03:15:56;;;;;;;12.48;8.27;;;;;;;;;;4991338;28;20084;-73
2023/07/07 03:18:22;;;;;;;38.53;26.48;;;;;;;;;;4990543;28;20027;-73
2023/07/07 03:20:48;;;;;;;47.85;26.65;;;;;;;;;;4991538;28;20023;-73
2023/07/07 03:23:15;;;;;;;22.80;13.75;;;;;;;;;;4991581;28;20019;-73
2023/07/07 03:25:41;;;;;;;15.90;8.68;;;;;;;;;;4991221;28;20699;-72
2023/07/07 03:28:07;;;;;;;4.45;3.35;;;;;;;;;;4990404;28;20050;-72
2023/07/07 03:30:34;;;;;;;3.25;2.75;;;;;;;;;;4991221;28;20023;-72
2023/07/07 03:33:00;;;;;;;5.13;3.95;;;;;;;;;;4991343;28;20030;-72
2023/07/07 03:35:26;;;;;;;7.05;3.55;;;;;;;;;;4991699;28;20026;-72
2023/07/07 03:37:52;;;;;;;4.13;3.40;;;;;;;;;;4990587;28;20031;-72
2023/07/07 03:40:18;;;;;;;3.70;2.92;;;;;;;;;;4973885;28;20023;-72
2023/07/07 03:42:44;;;;;;;4.38;2.85;;;;;;;;;;4991216;28;20022;-72
2023/07/07 03:45:10;;;;;;;3.75;2.70;;;;;;;;;;4991476;28;20069;-72
2023/07/07 03:47:36;;;;;;;3.15;2.30;;;;;;;;;;4990297;28;20100;-72
2023/07/07 03:50:03;;;;;;;5.60;2.45;;;;;;;;;;4991380;28;20038;-72
2023/07/07 03:52:29;;;;;;;10.00;2.72;;;;;;;;;;4991299;28;20026;-72
2023/07/07 03:54:55;;;;;;;6.93;2.88;;;;;;;;;;4991891;28;20443;-72
2023/07/07 03:57:21;;;;;;;5.03;3.05;;;;;;;;;;4990728;28;20031;-72
2023/07/07 03:59:47;;;;;;;6.15;3.25;;;;;;;;;;4990912;28;20026;-72
2023/07/07 04:02:13;;;;;;;5.38;3.00;;;;;;;;;;4991313;28;20029;-72
2023/07/07 04:04:40;;;;;;;5.40;2.90;;;;;;;;;;4990993;28;20030;-72
2023/07/07 04:07:06;;;;;;;5.75;2.80;;;;;;;;;;4972945;28;20033;-72
2023/07/07 04:09:32;;;;;;;5.85;2.75;;;;;;;;;;4991097;28;20535;-72
2023/07/07 04:11:58;;;;;;;5.30;2.63;;;;;;;;;;4991761;28;20069;-72
2023/07/07 04:14:27;;;;;;;7.25;3.25;;;;;;;;;;4994332;28;20080;-72
2023/07/07 04:16:53;;;;;;;6.43;3.40;;;;;;;;;;4994311;28;20149;-72
2023/07/07 04:19:21;;;;;;;6.53;3.00;;;;;;;;;;4993825;28;20105;-74
2023/07/07 04:21:47;;;;;;;5.88;3.00;;;;;;;;;;4994368;28;20049;-72
2023/07/07 04:24:13;;;;;;;4.32;2.53;;;;;;;;;;4976373;28;20476;-73
2023/07/07 04:26:39;;;;;;;10.27;2.83;;;;;;;;;;4994261;28;20027;-73
2023/07/07 04:29:05;;;;;;;3.42;2.67;;;;;;;;;;4994078;28;20033;-73
2023/07/07 04:31:34;;;;;;;6.53;3.03;;;;;;;;;;4994954;28;20053;-73
2023/07/07 04:34:00;;;;;;;5.03;3.28;;;;;;;;;;4994163;28;20037;-74
2023/07/07 04:36:26;;;;;;;5.97;2.72;;;;;;;;;;4993856;28;20034;-72
2023/07/07 04:38:53;;;;;;;4.70;2.90;;;;;;;;;;4993196;28;20027;-72
2023/07/07 04:41:20;;;;;;;7.15;2.70;;;;;;;;;;4993887;28;20477;-73
2023/07/07 04:43:48;;;;;;;4.47;2.97;;;;;;;;;;4993713;28;20144;-72
2023/07/07 04:46:15;;;;;;;8.35;3.05;;;;;;;;;;4994033;28;20026;-73
2023/07/07 04:48:41;;;;;;;6.00;2.60;;;;;;;;;;4993023;28;20034;-73
2023/07/07 04:51:08;;;;;;;5.72;2.72;;;;;;;;;;4992663;28;20493;-74
2023/07/07 04:53:35;;;;;;;4.75;2.60;;;;;;;;;;4992209;28;20076;-74
2023/07/07 04:56:02;;;;;;;5.22;2.25;;;;;;;;;;4993307;28;20110;-74
2023/07/07 04:58:28;;;;;;;7.35;2.88;;;;;;;;;;4975436;28;20019;-73
2023/07/07 05:01:05;;;;;;;7.43;2.40;;;;;;;;;;4993690;28;20027;-73
2023/07/07 05:03:31;;;;;;;5.10;2.60;;;;;;;;;;4993619;28;20058;-73
2023/07/07 05:05:57;;;;;;;6.13;2.30;;;;;;;;;;4993698;28;20058;-73
2023/07/07 05:08:23;;;;;;;6.22;2.40;;;;;;;;;;4992546;28;20035;-73
2023/07/07 05:10:49;;;;;;;4.03;2.47;;;;;;;;;;4993253;28;20033;-73
2023/07/07 05:13:15;;;;;;;4.28;2.60;;;;;;;;;;4993572;28;20035;-74
2023/07/07 05:15:41;;;;;;;4.65;2.50;;;;;;;;;;4975644;28;20045;-73
2023/07/07 05:18:07;;;;;;;5.72;2.30;;;;;;;;;;4992212;28;20030;-73
2023/07/07 05:20:34;;;;;;;3.30;2.47;;;;;;;;;;4993369;28;20029;-73
2023/07/07 05:23:00;;;;;;;9.02;3.20;;;;;;;;;;4992437;28;20030;-73
2023/07/07 05:25:26;;;;;;;4.45;2.50;;;;;;;;;;4993049;28;20044;-73
2023/07/07 05:27:52;;;;;;;3.28;2.15;;;;;;;;;;4991900;28;20038;-73
2023/07/07 05:30:18;;;;;;;3.80;2.40;;;;;;;;;;4993148;28;20026;-74
2023/07/07 05:32:44;;;;;;;6.93;2.72;;;;;;;;;;4993010;28;20477;-73
2023/07/07 05:35:09;;;;;;;5.63;2.67;;;;;;;;;;4992666;28;20041;-73
2023/07/07 05:37:35;;;;;;;4.18;2.13;;;;;;;;;;4991868;28;20030;-73
2023/07/07 05:40:01;;;;;;;6.72;2.70;;;;;;;;;;4992481;28;20484;-73
2023/07/07 05:42:29;;;;;;;4.45;2.13;;;;;;;;;;4992415;28;20026;-73
2023/07/07 05:44:55;;;;;;;3.70;2.03;;;;;;;;;;4992659;28;20105;-73
2023/07/07 05:47:21;;;;;;;5.68;1.98;;;;;;;;;;4991734;28;20064;-73
2023/07/07 05:49:47;;;;;;;4.13;2.10;;;;;;;;;;4992418;28;20362;-73
2023/07/07 05:52:14;;;;;;;2.63;2.03;;;;;;;;;;4992409;28;20590;-73
2023/07/07 05:54:40;;;;;;;3.78;2.10;;;;;;;;;;4992207;28;20031;-73
2023/07/07 05:57:06;;;;;;;5.15;2.40;;;;;;;;;;4974306;28;20038;-73
2023/07/07 05:59:32;;;;;;;3.13;1.80;;;;;;;;;;4992575;28;20035;-73
2023/07/07 06:01:58;;;;;;;5.93;2.10;;;;;;;;;;4992288;28;20030;-74
2023/07/07 06:04:25;;;;;;;5.10;2.38;;;;;;;;;;4992335;28;20026;-73
2023/07/07 06:06:51;;;;;;;4.40;2.10;;;;;;;;;;4991970;28;20026;-73
2023/07/07 06:09:17;;;;;;;6.20;2.33;;;;;;;;;;4991503;28;20045;-73
2023/07/07 06:11:43;;;;;;;6.68;2.58;;;36.10;24.10;;;;;;4992176;28;20485;-73
2023/07/07 06:14:09;;;;;;;7.55;2.25;;;;;;;;;;4991972;28;20030;-73
2023/07/07 06:16:35;;;;;;;4.75;2.13;;;;;;;;;;4991942;28;20383;-74
2023/07/07 06:19:02;;;;;;;4.65;2.38;;;;;;;;;;4990933;28;20036;-74
2023/07/07 06:21:28;;;;;;;6.40;2.35;;;;;;;;;;4975679;28;20030;-73
2023/07/07 06:23:54;;;;;;;4.50;2.30;;;;;;;;;;4992027;28;20026;-73
2023/07/07 06:26:20;;;;;;;9.57;2.78;;;;;;;;;;4991762;28;20030;-73
2023/07/07 06:28:46;;;;;;;6.47;2.38;;;;;;;;;;4991216;28;20037;-73
2023/07/07 06:31:11;;;;;;;8.20;2.30;;;;;;;;;;4974257;28;20026;-73
2023/07/07 06:33:39;;;;;;;5.75;2.38;;;;;;;;;;4991503;28;20428;-73
2023/07/07 06:36:04;;;;;;;10.75;2.85;;;32.40;29.30;;;;;;4973323;28;20481;-74
2023/07/07 06:38:30;;;;;;;2.88;2.03;;;33.90;26.80;;;;;;4991016;28;20026;-74
2023/07/07 06:40:55;;;;;;;9.05;2.67;;;32.40;28.20;;;;;;4991811;28;20101;-75
2023/07/07 06:43:21;;;;;;;4.47;2.42;;;31.60;29.00;;;;;;4991872;28;20022;-73
2023/07/07 06:45:51;;;;;;;6.07;2.35;;;;;;;;;;4991759;28;20042;-73
2023/07/07 06:48:17;;;;;;;4.03;2.60;;;;;;;;;;4990945;28;20025;-73
2023/07/07 06:50:43;;;;;;;2.83;2.17;;;31.50;29.50;;;;;;4991501;28;20029;-73
2023/07/07 06:53:10;;;;;;;5.47;2.67;;;33.30;27.20;;;;;;4991411;28;20109;-73
2023/07/07 06:55:37;;;;;;;4.25;2.22;;;32.30;27.90;;;;;;4991629;28;20076;-74
2023/07/07 06:58:03;;;;;;;5.60;2.33;;;31.90;28.70;;;;;;4990591;28;20386;-73
2023/07/07 07:00:31;;;;;;;4.78;2.15;;;;;;;;;;4991619;28;20066;-74
2023/07/07 07:02:56;;;;;;;3.78;2.08;;;31.20;29.90;;;;;;4991632;28;20053;-74
2023/07/07 07:05:22;;;;;;;4.75;2.35;;;32.50;27.80;;;;;;4991074;28;20084;-74
2023/07/07 07:07:48;;;;;;;2.97;1.95;;;32.80;27.80;;;;;;4990434;28;20112;-74
2023/07/07 07:10:14;;;;;;;5.60;2.22;;;32.60;27.70;;;;;;4991463;28;20030;-75
2023/07/07 07:12:40;;;;;;;5.32;2.20;;;33.60;26.60;;;;;;4973730;28;20037;-74
2023/07/07 07:15:07;;;;;;;3.97;2.13;;;;;;;;;;4991340;28;20027;-74
2023/07/07 07:17:33;;;;;;;7.07;2.20;;;34.00;26.90;;;;;;4990377;28;20022;-74
2023/07/07 07:19:58;;;;;;;5.07;2.35;;;32.90;27.10;;;;;;4991410;28;20022;-74
2023/07/07 07:22:24;;;;;;;5.65;2.50;;;30.80;29.70;;;;;;4991122;28;20046;-74
2023/07/07 07:24:50;;;;;;;6.70;2.13;;;;;;;;;;4973309;28;20496;-74
2023/07/07 07:27:16;;;;;;;4.65;2.65;;;;;;;;;;4972976;28;20057;-73
2023/07/07 07:29:43;;;;;;;4.18;2.25;;;30.60;30.10;;;;;;4991238;28;20026;-74
2023/07/07 07:32:09;;;;;;;5.15;2.47;;;30.80;29.90;;;;;;4991268;28;20400;-74
2023/07/07 07:34:35;;;;;;;6.63;2.35;;;31.20;29.80;;;;;;4990671;28;20113;-73
2023/07/07 07:37:01;;;;;;;3.25;2.30;;;31.40;28.90;;;;;;4990950;28;20062;-73
2023/07/07 07:39:28;;;;;;;3.13;2.22;;;32.80;27.20;;;;;;4990721;28;20025;-73
2023/07/07 07:41:55;;;;;;;5.82;2.40;;;32.60;27.30;;;;;;4991045;28;20018;-73
2023/07/07 07:44:22;;;;;;;6.03;2.47;;;33.40;26.10;;;;;;4991037;28;20049;-73
2023/07/07 07:46:49;;;;;;;6.93;2.13;;;;;;;;;;4993034;28;20148;-73
2023/07/07 07:49:15;;;;;;;7.35;2.78;;;33.90;25.20;;;;;;4976457;28;20058;-73
2023/07/07 07:51:42;;;;;;;6.75;2.45;;;33.60;26.20;;;;;;4977044;28;20160;-73
2023/07/07 07:54:09;;;;;;;8.40;2.45;;;32.60;26.70;;;;;;4977244;28;20049;-74
2023/07/07 07:56:36;;;;;;;6.88;2.35;;;32.40;28.20;;;;;;4995061;28;20442;-74
2023/07/07 07:59:02;;;;;;;3.40;2.22;;;34.50;27.50;;;;;;4993894;28;20026;-74
2023/07/07 08:01:28;;;;;;;4.00;1.83;;;36.80;24.50;;;;;;4994576;28;20404;-74
2023/07/07 08:03:55;;;;;;;3.85;2.20;;;38.00;22.20;;;;;;4976956;28;20018;-74
2023/07/07 08:06:21;;;;;;;4.57;2.40;;;38.70;21.30;;;;;;4994550;28;20022;-73
2023/07/07 08:08:46;;;;;;;4.53;2.42;;;39.70;19.90;;;;;;4993913;28;20026;-73
2023/07/07 08:11:18;;;;;;;5.47;2.70;;;39.90;19.50;;;;;;4994660;28;20509;-73
2023/07/07 08:13:43;;;;;;;3.67;2.10;;;37.10;21.70;;;;;;4994241;28;20393;-73
2023/07/07 08:16:10;;;;;;;5.10;2.40;;;34.90;24.20;;;;;;4993898;28;20053;-73
2023/07/07 08:18:37;;;;;;;7.15;2.40;;;35.80;24.00;;;;;;4993338;28;20112;-73
2023/07/07 08:21:04;;;;;;;5.07;2.70;;;35.30;23.20;;;;;;4994572;28;20019;-74
2023/07/07 08:23:29;;;;;;;7.03;2.33;;;35.00;23.70;;;;;;4994214;28;20025;-73
2023/07/07 08:25:55;;;;;;;5.78;2.33;;;35.90;23.90;;;;;;4994268;28;20030;-73
2023/07/07 08:28:21;;;;;;;3.90;2.40;;;34.50;24.20;;;;;;5020674;23;20050;-80
2023/07/07 08:30:46;;;;;;;5.05;2.78;;;34.00;24.70;;;;;;4978114;28;20057;-79
2023/07/07 08:33:12;;;;;;;5.57;2.25;;;35.00;24.90;;;;;;4994670;28;20030;-78
2023/07/07 08:35:38;;;;;;;7.47;3.05;;;35.40;23.30;;;;;;4976903;28;20035;-81
2023/07/07 08:38:04;;;;;;;3.60;2.50;;;36.30;23.00;;;;;;4994727;28;20404;-79
2023/07/07 08:40:49;;;;;;;4.68;2.35;;;36.60;22.70;;;;;;4995239;28;20019;-81
2023/07/07 08:43:16;;;;;;;5.32;2.50;;;36.80;22.00;;;;;;4995243;28;20120;-79
2023/07/07 08:45:50;;;;;;;5.85;2.38;;;37.40;21.80;;;;;;4994631;28;20026;-80
2023/07/07 08:48:54;;;;;;;4.22;2.40;;;37.60;22.70;;;;;;4993350;28;20030;-79
2023/07/07 08:51:25;;;;;;;9.32;3.75;;;37.30;21.80;;;;;;4994302;28;20034;-79
2023/07/07 08:54:08;;;;;;;3.42;2.40;;;37.10;22.00;;;;;;4996484;28;20026;-80
2023/07/07 08:56:45;;;;;;;10.80;2.88;;;34.50;24.30;;;;;;4998509;28;20030;-78
2023/07/07 08:59:37;;;;;;;4.72;2.67;;;33.10;25.30;;;;;;4995817;28;20037;-79
2023/07/07 09:02:11;;;;;;;6.65;2.92;;;31.90;27.10;;;;;;4980119;28;20100;-79
2023/07/07 09:04:58;;;;;;;5.00;2.90;;;33.30;26.60;;;;;;4999473;28;20027;-80
2023/07/07 09:07:42;;;;;;;5.35;2.88;;;33.20;25.30;;;;;;4986063;28;20077;-78
2023/07/07 09:10:14;;;;;;;5.18;3.10;;;;;;;;;;5007203;28;20026;-78
2023/07/07 09:12:45;;;;;;;4.25;2.50;;;;;;;;;;5008119;28;20052;-79
2023/07/07 09:15:26;;;;;;;13.27;2.92;;;33.80;26.00;;;;;;4992108;28;20042;-79
2023/07/07 09:18:02;;;;;;;2.55;2.10;;;34.90;26.60;;;;;;5007169;28;20065;-79
2023/07/07 09:20:31;;;;;;;4.28;2.20;;;36.30;24.40;;;;;;4989563;28;20041;-79
2023/07/07 09:23:06;;;;;;;5.28;2.33;;;36.10;22.80;;;;;;4997533;28;20046;-79
2023/07/07 09:25:42;;;;;;;3.72;2.63;;;35.40;22.50;;;;;;4996287;28;20077;-79
2023/07/07 09:28:11;;;;;;;4.95;2.67;;;34.80;23.10;;;;;;4994739;28;20038;-79
2023/07/07 09:30:58;;;;;;;6.40;2.30;;;33.40;24.20;;;;;;4996519;28;20485;-80
2023/07/07 09:33:24;;;;;;;3.65;2.35;;;33.30;24.30;;;;;;4994945;28;20031;-79
2023/07/07 09:36:05;;;;;;;3.28;2.42;;;33.50;23.60;;;;;;4980059;28;20065;-80
2023/07/07 09:38:40;;;;;;;;;;;33.60;23.40;;;;;;4997327;28;20053;-79
2023/07/07 09:41:14;;;;;;;4.35;2.30;;;34.70;22.40;;;;;;4996546;28;19984;-80
2023/07/07 09:44:04;;;;;;;4.05;2.50;;;36.00;20.30;;;;;;4978977;28;20026;-80
2023/07/07 09:46:50;;;;;;;4.85;1.98;;;36.80;20.00;;;;;;4996448;28;20034;-80
2023/07/07 09:49:23;;;;;;;2.65;2.05;;;;;;;;;;4995777;28;20041;-80
2023/07/07 09:52:36;;;;;;;4.90;3.00;;;34.80;20.60;;;;;;4995888;28;20113;-80
2023/07/07 09:55:06;;;;;;;4.13;2.30;;;34.20;21.50;;;;;;4992408;28;20039;-80
2023/07/07 09:57:39;;;;;;;5.50;2.33;;;34.30;21.70;;;;;;4998322;28;20030;-81
2023/07/07 10:00:09;;;;;;;4.10;2.35;;;34.50;21.00;;;;;;4982731;28;20026;-80
2023/07/07 10:02:35;;;;;;;2.55;2.15;;;34.80;20.40;;;;;;4982251;28;20033;-81
2023/07/07 10:05:07;;;;;;;4.93;2.53;;;34.60;22.10;;;;;;4999638;28;20345;-81
2023/07/07 10:07:38;;;;;;;5.35;2.50;;;34.60;21.40;;;;;;4996551;28;20377;-80
2023/07/07 10:10:05;;;;;;;4.00;2.45;;;34.80;22.20;;;;;;4999769;28;20030;-80
2023/07/07 10:12:31;;;;;;;3.38;2.38;;;34.10;22.10;;;;;;4983593;28;20026;-80
2023/07/07 10:14:58;;;;;;;4.13;2.50;;;34.00;22.60;;;;;;4998593;28;20028;-80
2023/07/07 10:17:50;;;;;;;5.57;2.50;;;33.90;22.40;;;;;;4997068;28;20031;-81
2023/07/07 10:20:16;;;;;;;5.28;2.47;;;33.70;24.20;;;;;;4998742;28;20030;-80
2023/07/07 10:22:42;;;;;;;5.50;2.65;;;33.70;25.00;;;;;;4997717;28;20110;-80
2023/07/07 10:25:13;;;;;;;2.70;1.90;;;33.50;24.20;;;;;;4998434;28;20033;-80
2023/07/07 10:27:38;;;;;;;3.85;2.60;;;33.40;24.20;;;;;;4996137;28;20102;-80
2023/07/07 10:30:05;;;;;;;6.22;2.33;;;33.20;24.20;;;;;;4998360;28;20046;-79
2023/07/07 10:32:31;;;;;;;3.67;2.50;;;32.70;24.70;;;;;;4997602;28;20038;-80
2023/07/07 10:34:58;;;;;;;5.30;2.22;;;31.60;25.60;;;;;;4998221;28;20050;-80
2023/07/07 10:37:31;;;;;;;3.60;2.58;;;31.10;26.10;;;;;;4993440;28;20030;-79
2023/07/07 10:40:00;;;;;;;4.32;2.63;;;30.70;27.00;;;;;;4975118;28;20081;-79
2023/07/07 10:42:27;;;;;;;5.15;2.63;;;;;;;;;;4992689;28;20030;-77
2023/07/07 10:44:54;;;;;;;5.00;2.70;;;;;;;;;;4992357;28;20109;-77
2023/07/07 10:47:40;;;;;;;3.35;2.45;;;;;;;;;;4996123;28;20030;-80
2023/07/07 10:50:12;;;;;;;6.07;2.42;;;;;;;;;;4995360;28;20031;-80
2023/07/07 10:52:41;;;;;;;7.95;2.80;;;;;;;;;;4995344;28;20691;-77
2023/07/07 10:55:16;;;;;;;5.05;2.50;;;;;;;;;;4996667;28;20027;-80
2023/07/07 10:57:55;;;;;;;7.60;3.00;;;;;;;;;;4977969;28;20030;-80
2023/07/07 11:00:39;;;;;;;5.43;2.58;;;;;;;;;;4996067;28;20022;-80
2023/07/07 11:03:24;;;;;;;4.03;2.75;;;;;;;;;;4974179;28;20026;-79
2023/07/07 11:06:29;;;;;;;8.70;3.00;;;;;;;;;;4974258;28;20038;-79
2023/07/07 11:09:01;;;;;;;4.97;2.85;;;;;;;;;;4915643;29;20148;-80
2023/07/07 11:11:30;;;;;;;4.03;2.50;;;;;;;;;;4916554;29;20095;-81
2023/07/07 11:13:59;;;;;;;3.35;2.53;;;;;;;;;;4959296;28;20090;-79
2023/07/07 11:16:43;;;;;;;6.90;2.92;;;;;;;;;;4979234;28;20030;-78
2023/07/07 11:19:09;;;;;;;7.20;2.90;;;;;;;;;;4995256;28;20023;-80
2023/07/07 11:21:44;;;;;;;3.88;2.30;;;;;;;;;;4998870;28;20057;-80
2023/07/07 11:24:33;;;;;;;3.95;2.60;;;;;;;;;;5001212;28;20030;-79
2023/07/07 11:27:25;;;;;;;3.90;2.80;;;;;;;;;;5000425;28;20042;-78
2023/07/07 11:29:51;;;;;;;3.60;2.15;;;;;;;;;;4969597;28;20042;-80
2023/07/07 11:32:29;;;;;;;3.60;2.63;;;;;;;;;;4999792;28;20040;-80
2023/07/07 11:35:10;;;;;;;3.55;2.42;;;;;;;;;;4982152;28;20026;-80
2023/07/07 11:37:36;;;;;;;3.13;2.50;;;;;;;;;;4998794;28;20085;-80
2023/07/07 11:40:08;;;;;;;4.18;2.28;;;;;;;;;;4998516;28;20034;-80
2023/07/07 11:42:45;;;;;;;3.22;2.22;;;;;;;;;;4998615;28;20416;-80
2023/07/07 11:45:14;;;;;;;6.22;2.47;;;;;;;;;;4982265;28;20038;-80
2023/07/07 11:47:49;;;;;;;3.35;2.42;;;;;;;;;;4998995;28;20487;-81
2023/07/07 11:50:18;;;;;;;5.90;2.58;;;;;;;;;;4999093;28;20022;-80
2023/07/07 11:52:44;;;;;;;4.68;2.80;;;;;;;;;;4998522;28;20069;-81
2023/07/07 11:55:29;;;;;;;5.88;2.33;;;;;;;;;;4998696;28;20030;-80
2023/07/07 11:58:04;;;;;;;4.28;2.92;;;;;;;;;;4998424;28;20560;-81
2023/07/07 12:00:33;;;;;;;4.97;2.75;;;;;;;;;;4998779;28;20074;-80
2023/07/07 12:03:22;;;;;;;3.22;1.90;;;;;;;;;;4998257;28;20476;-80
2023/07/07 12:05:50;;;;;;;6.55;2.80;;;;;;;;;;4980892;28;20564;-81
2023/07/07 12:08:18;;;;;;;2.30;2.10;;;;;;;;;;4997812;28;20030;-80
2023/07/07 12:10:48;;;;;;;5.82;2.70;;;;;;;;;;4998840;28;20114;-78
2023/07/07 12:13:30;;;;;;;9.23;2.63;;;;;;;;;;4981021;28;20033;-80
2023/07/07 12:16:05;;;;;;;10.00;3.13;;;;;;;;;;4998755;28;20022;-79
2023/07/07 12:18:33;;;;;;;5.22;2.67;;;;;;;;;;4999211;28;20030;-80
2023/07/07 12:21:10;;;;;;;6.10;2.80;;;;;;;;;;5000095;28;20033;-78
2023/07/07 12:23:37;;;;;;;3.92;2.65;;;;;;;;;;5002586;28;20027;-80
2023/07/07 12:26:27;;;;;;;2.45;2.20;;;;;;;;;;5002205;28;20405;-79
2023/07/07 12:28:57;;;;;;;5.95;2.60;;;;;;;;;;4998023;28;20035;-80
2023/07/07 12:31:24;;;;;;;6.22;2.75;;;;;;;;;;4980101;28;20458;-80
2023/07/07 12:33:51;;;;;;;3.58;2.50;;;;;;;;;;4997442;28;20384;-79
2023/07/07 12:36:18;;;;;;;7.13;2.58;;;;;;;;;;4997296;28;20023;-78
2023/07/07 12:38:49;;;;;;;3.88;2.40;;;;;;;;;;4992915;28;20049;-78
2023/07/07 12:41:21;;;;;;;6.47;2.67;;;;;;;;;;4992979;28;20049;-80
2023/07/07 12:43:52;;;;;;;3.65;2.63;;;;;;;;;;4980748;28;20118;-79
2023/07/07 12:46:18;;;;;;;;;;;;;;;;;;4999542;28;20034;-80
2023/07/07 12:48:45;;;;;;;3.78;2.20;;;;;;;;;;5001223;28;20060;-79
2023/07/07 12:51:12;;;;;;;6.30;2.88;;;;;;;;;;4985050;28;20030;-80
2023/07/07 12:53:42;;;;;;;4.40;2.40;;;;;;;;;;4984669;28;20026;-79
2023/07/07 12:56:08;;;;;;;4.55;2.40;;;;;;;;;;5000462;28;20034;-81
2023/07/07 12:58:37;;;;;;;1.88;1.60;;;;;;;;;;5001609;28;20056;-80
2023/07/07 13:01:15;;;;;;;4.53;2.30;;;;;;;;;;5001739;28;20053;-80
2023/07/07 13:04:00;;;;;;;8.35;2.83;;;;;;;;;;4996628;28;20098;-78
2023/07/07 13:06:34;;;;;;;4.53;2.40;;;;;;;;;;4977822;28;20022;-79
2023/07/07 13:09:12;;;;;;;4.35;2.78;;;;;;;;;;4993847;28;20037;-79
2023/07/07 13:11:39;;;;;;;5.50;3.03;;;;;;;;;;4995679;28;20055;-79
2023/07/07 13:14:06;;;;;;;5.53;2.50;;;;;;;;;;4987262;28;20033;-79
2023/07/07 13:16:33;;;;;;;6.15;2.47;;;;;;;;;;4979753;28;20161;-80
2023/07/07 13:18:59;;;;;;;5.53;3.03;;;;;;;;;;4980588;28;20027;-80
2023/07/07 13:21:29;;;;;;;6.38;3.25;;;;;;;;;;4980385;28;20015;-79
2023/07/07 13:23:56;;;;;;;4.35;3.00;;;;;;;;;;4981276;28;20023;-80
2023/07/07 13:26:26;;;;;;;3.97;2.50;;;;;;;;;;4963933;28;20027;-80
2023/07/07 13:29:02;;;;;;;4.53;2.40;;;;;;;;;;4956266;28;20034;-80
2023/07/07 13:31:28;;;;;;;3.13;2.38;;;;;;;;;;4959669;28;20166;-79
2023/07/07 13:33:54;;;;;;;3.08;2.53;;;;;;;;;;4977787;28;20022;-80
2023/07/07 13:36:21;;;;;;;4.10;2.92;;;;;;;;;;4976551;28;20466;-78
2023/07/07 13:38:48;;;;;;;6.78;3.22;;;;;;;;;;4958482;28;20019;-80
2023/07/07 13:41:15;;;;;;;6.72;2.35;;;;;;;;;;4977939;28;20046;-79
2023/07/07 13:43:45;;;;;;;5.60;2.42;;;;;;;;;;4977037;28;20422;-79
2023/07/07 13:46:14;;;;;;;6.05;2.75;;;;;;;;;;4959028;28;20029;-79
2023/07/07 13:48:46;;;;;;;5.43;2.53;;;;;;;;;;4975999;28;20052;-79
2023/07/07 13:51:19;;;;;;;3.80;2.30;;;;;;;;;;4978162;28;20019;-80
2023/07/07 13:53:45;;;;;;;3.20;2.70;;;;;;;;;;4977768;28;20030;-80
2023/07/07 13:56:11;;;;;;;3.17;2.65;;;;;;;;;;4977426;28;20461;-79
2023/07/07 13:58:46;;;;;;;4.25;2.55;;;;;;;;;;4976110;28;20039;-78
2023/07/07 14:01:31;;;;;;;6.38;2.70;;;;;;;;;;4956049;28;20031;-79
2023/07/07 14:03:58;;;;;;;3.15;2.08;;;;;;;;;;4973155;28;20035;-79
2023/07/07 14:06:24;;;;;;;6.65;2.53;;;;;;;;;;4973574;28;20111;-79
2023/07/07 14:08:51;;;;;;;2.95;2.10;;;;;;;;;;4972475;28;20437;-80
2023/07/07 14:11:19;;;;;;;3.33;1.90;;;;;;;;;;4973626;28;20063;-78
2023/07/07 14:13:51;;;;;;;3.13;2.10;;;;;;;;;;4956180;28;20485;-79
2023/07/07 14:16:20;;;;;;;7.00;2.55;;;;;;;;;;4974094;28;20026;-79
2023/07/07 14:18:48;;;;;;;4.65;2.50;;;;;;;;;;4973441;28;20055;-79
2023/07/07 14:21:17;;;;;;;3.85;2.92;;;;;;;;;;4973775;28;20031;-79
2023/07/07 14:23:46;;;;;;;4.30;2.58;;;;;;;;;;4975037;28;20429;-79